Time;durP1;ratioP1;P1;durP2;ratioP2;P2;SDS_P1;SDS_P2;PMS_P1;PMS_P2;Temp;Humidity;BMP_temperature;BMP_pressure;BME280_temperature;BME280_humidity;BME280_pressure;Samples;Min_cycle;Max_cycle;Signal;HPM_P1;HPM_P2
2023/08/27 00:01:13;;;;;;;6.78;3.92;;;17.30;99.90;;;;;;5051636;28;20175;-52
2023/08/27 00:03:39;;;;;;;4.55;2.10;;;17.30;99.90;;;;;;5050954;28;20167;-50
2023/08/27 00:06:05;;;;;;;5.32;2.20;;;17.10;99.90;;;;;;5051797;28;20532;-50
2023/08/27 00:08:31;;;;;;;4.65;2.08;;;17.00;99.90;;;;;;5033545;28;20185;-50
2023/08/27 00:11:00;;;;;;;2.40;2.15;;;17.10;99.90;;;;;;5051316;28;20181;-50
2023/08/27 00:13:26;;;;;;;6.60;2.03;;;17.20;99.90;;;;;;5051249;28;20691;-50
2023/08/27 00:15:52;;;;;;;2.13;1.85;;;17.20;99.90;;;;;;5051293;28;20398;-50
2023/08/27 00:18:17;;;;;;;5.05;1.83;;;17.20;99.90;;;;;;5051206;28;20285;-50
2023/08/27 00:20:46;;;;;;;2.40;1.77;;;17.10;99.90;;;;;;5051183;28;20182;-50
2023/08/27 00:23:12;;;;;;;7.18;2.13;;;17.10;99.90;;;;;;5051251;28;20300;-50
2023/08/27 00:25:38;;;;;;;2.65;1.85;;;17.20;99.90;;;;;;5052900;28;20194;-50
2023/08/27 00:28:03;;;;;;;3.22;2.05;;;17.20;99.90;;;;;;5055256;28;20181;-50
2023/08/27 00:30:29;;;;;;;6.40;1.90;;;17.20;99.90;;;;;;5055300;28;20246;-50
2023/08/27 00:32:55;;;;;;;2.63;2.00;;;17.20;99.90;;;;;;5055124;28;20181;-50
2023/08/27 00:35:20;;;;;;;3.50;2.25;;;17.20;99.90;;;;;;5055189;28;20535;-50
2023/08/27 00:37:46;;;;;;;2.83;2.05;;;17.20;99.90;;;;;;5054886;28;20218;-51
2023/08/27 00:40:11;;;;;;;2.30;1.98;;;17.20;99.90;;;;;;5055115;28;20257;-50
2023/08/27 00:42:37;;;;;;;3.92;2.42;;;17.00;99.90;;;;;;5055360;28;20174;-49
2023/08/27 00:45:03;;;;;;;3.15;1.80;;;17.10;99.90;;;;;;5054989;28;20213;-49
2023/08/27 00:47:30;;;;;;;5.25;2.00;;;17.00;99.90;;;;;;5055203;28;20236;-49
2023/08/27 00:49:57;;;;;;;3.08;2.15;;;17.00;99.90;;;;;;5055139;28;20175;-50
2023/08/27 00:52:23;;;;;;;2.88;2.17;;;16.80;99.90;;;;;;5054826;28;20163;-49
2023/08/27 00:54:50;;;;;;;3.85;1.90;;;16.90;99.90;;;;;;5054793;28;20170;-49
2023/08/27 00:57:18;;;;;;;2.85;2.03;;;16.80;99.90;;;;;;5054738;28;20698;-50
2023/08/27 00:59:44;;;;;;;4.10;2.53;;;16.80;99.90;;;;;;5054682;28;20198;-50
2023/08/27 01:02:10;;;;;;;6.53;2.40;;;16.80;99.90;;;;;;5054988;28;20221;-51
2023/08/27 01:04:35;;;;;;;4.18;2.40;;;16.80;99.90;;;;;;5055029;28;20638;-49
2023/08/27 01:07:11;;;;;;;4.13;2.25;;;16.80;99.90;;;;;;5054637;28;20527;-50
2023/08/27 01:09:42;;;;;;;5.18;2.53;;;16.80;99.90;;;;;;5055306;28;20170;-49
2023/08/27 01:12:30;;;;;;;3.42;2.00;;;16.80;99.90;;;;;;5054935;28;20163;-51
2023/08/27 01:14:58;;;;;;;3.00;1.98;;;16.90;99.90;;;;;;5036618;28;20257;-49
2023/08/27 01:17:24;;;;;;;2.33;2.05;;;16.80;99.90;;;;;;5054299;28;20171;-50
2023/08/27 01:19:50;;;;;;;4.30;2.60;;;16.80;99.90;;;;;;5054442;28;20526;-51
2023/08/27 01:22:16;;;;;;;4.00;2.00;;;16.80;99.90;;;;;;5054393;28;20171;-52
2023/08/27 01:24:42;;;;;;;2.30;2.10;;;16.80;99.90;;;;;;5054321;28;20171;-51
2023/08/27 01:27:24;;;;;;;2.85;1.83;;;16.70;99.90;;;;;;5054645;28;20158;-52
2023/08/27 01:30:02;;;;;;;4.68;2.22;;;16.70;99.90;;;;;;5054144;28;20155;-52
2023/08/27 01:32:29;;;;;;;3.85;2.50;;;16.70;99.90;;;;;;5054169;28;20166;-51
2023/08/27 01:34:56;;;;;;;7.38;2.10;;;16.60;99.90;;;;;;5036236;28;20503;-52
2023/08/27 01:37:22;;;;;;;2.20;2.00;;;16.50;99.90;;;;;;5053255;28;20223;-52
2023/08/27 01:39:59;;;;;;;1.80;1.70;;;16.60;99.90;;;;;;5053943;28;20196;-51
2023/08/27 01:42:24;;;;;;;2.13;1.90;;;16.60;99.90;;;;;;5053841;28;20788;-50
2023/08/27 01:44:50;;;;;;;2.67;1.83;;;16.60;99.90;;;;;;5036037;28;20214;-51
2023/08/27 01:47:16;;;;;;;2.60;1.65;;;16.40;99.90;;;;;;5054105;28;20171;-51
2023/08/27 01:49:42;;;;;;;4.18;1.85;;;16.50;99.90;;;;;;5053845;28;20245;-51
2023/08/27 01:52:07;;;;;;;2.50;1.88;;;16.50;99.90;;;;;;5054159;28;20592;-52
2023/08/27 01:54:33;;;;;;;4.38;1.90;;;16.50;99.90;;;;;;5053701;28;20171;-51
2023/08/27 01:56:59;;;;;;;4.78;2.08;;;16.40;99.90;;;;;;5053608;28;20175;-52
2023/08/27 01:59:24;;;;;;;2.58;1.88;;;16.40;99.90;;;;;;5053749;28;20246;-51
2023/08/27 02:01:50;;;;;;;2.35;1.80;;;16.50;99.90;;;;;;5053579;28;20647;-52
2023/08/27 02:04:15;;;;;;;2.67;1.70;;;16.50;99.90;;;;;;5053738;28;20163;-52
2023/08/27 02:06:41;;;;;;;4.00;1.90;;;16.50;99.90;;;;;;5053475;28;20166;-51
2023/08/27 02:09:06;;;;;;;3.17;1.90;;;16.60;99.90;;;;;;5053805;28;20220;-51
2023/08/27 02:11:32;;;;;;;3.22;1.95;;;16.60;99.90;;;;;;5053437;28;20257;-51
2023/08/27 02:13:58;;;;;;;3.85;2.20;;;16.50;99.90;;;;;;5053253;28;20224;-51
2023/08/27 02:16:23;;;;;;;2.80;1.98;;;16.60;99.90;;;;;;5053255;28;20194;-51
2023/08/27 02:18:49;;;;;;;8.30;2.20;;;16.60;99.90;;;;;;5053169;28;20593;-51
2023/08/27 02:21:15;;;;;;;2.83;1.90;;;16.50;99.90;;;;;;5053290;28;20615;-50
2023/08/27 02:23:40;;;;;;;6.25;1.73;;;16.60;99.90;;;;;;5053188;28;20250;-50
2023/08/27 02:26:06;;;;;;;3.25;2.30;;;16.60;99.90;;;;;;5053525;28;20229;-50
2023/08/27 02:28:33;;;;;;;4.60;1.98;;;16.50;99.90;;;;;;5053324;28;20182;-51
2023/08/27 02:30:58;;;;;;;3.28;2.30;;;16.50;99.90;;;;;;5052975;28;20710;-50
2023/08/27 02:33:24;;;;;;;2.95;1.77;;;16.50;99.90;;;;;;5053013;28;20274;-49
2023/08/27 02:35:50;;;;;;;3.30;1.80;;;16.50;99.90;;;;;;5053007;28;20171;-50
2023/08/27 02:38:15;;;;;;;2.58;1.80;;;16.50;99.90;;;;;;5052715;28;20214;-49
2023/08/27 02:40:41;;;;;;;3.10;2.00;;;16.50;99.90;;;;;;5053155;28;20178;-49
2023/08/27 02:43:07;;;;;;;1.95;1.70;;;16.50;99.90;;;;;;5053329;28;20159;-50
2023/08/27 02:45:32;;;;;;;2.97;1.90;;;16.50;99.90;;;;;;5053028;28;20236;-51
2023/08/27 02:47:58;;;;;;;2.28;2.08;;;16.50;99.90;;;;;;5051817;28;20646;-50
2023/08/27 02:50:24;;;;;;;5.25;1.83;;;16.40;99.90;;;;;;5052659;28;20638;-50
2023/08/27 02:52:49;;;;;;;2.38;1.70;;;16.40;99.90;;;;;;5052742;28;20167;-51
2023/08/27 02:55:15;;;;;;;3.58;1.85;;;16.30;99.90;;;;;;5034579;28;20167;-52
2023/08/27 02:57:41;;;;;;;3.03;1.83;;;16.30;99.90;;;;;;5052746;28;20179;-52
2023/08/27 03:00:07;;;;;;;2.92;1.52;;;16.20;99.90;;;;;;5053148;28;20194;-51
2023/08/27 03:02:32;;;;;;;2.95;1.55;;;16.30;99.90;;;;;;5052455;28;20653;-50
2023/08/27 03:05:04;;;;;;;3.40;1.70;;;16.30;99.90;;;;;;5052600;28;20177;-50
2023/08/27 03:07:30;;;;;;;2.85;1.90;;;16.30;99.90;;;;;;5052396;28;20221;-52
2023/08/27 03:09:55;;;;;;;3.13;1.98;;;16.30;99.90;;;;;;5052286;28;20170;-52
2023/08/27 03:12:21;;;;;;;3.92;1.73;;;16.30;99.90;;;;;;5052280;28;20169;-50
2023/08/27 03:14:47;;;;;;;2.72;1.60;;;16.20;99.90;;;;;;5052216;28;20578;-50
2023/08/27 03:17:12;;;;;;;4.38;1.52;;;16.20;99.90;;;;;;5052144;28;20241;-51
2023/08/27 03:19:38;;;;;;;4.15;1.80;;;16.20;99.90;;;;;;5052392;28;20264;-49
2023/08/27 03:22:03;;;;;;;1.45;1.30;;;16.20;99.90;;;;;;5052440;28;20521;-51
2023/08/27 03:24:29;;;;;;;3.17;2.03;;;16.20;99.90;;;;;;5052084;28;20174;-51
2023/08/27 03:26:54;;;;;;;8.00;3.90;;;16.20;99.90;;;;;;5052024;28;20515;-52
2023/08/27 03:29:21;;;;;;;5.32;3.20;;;16.10;99.90;;;;;;5051933;28;20175;-52
2023/08/27 03:31:47;;;;;;;4.18;2.70;;;16.10;99.90;;;;;;5052124;28;20241;-52
2023/08/27 03:34:13;;;;;;;2.97;2.00;;;16.20;99.90;;;;;;5052192;28;20217;-52
2023/08/27 03:36:39;;;;;;;7.80;3.22;;;16.20;99.90;;;;;;5051734;28;20289;-50
2023/08/27 03:39:05;;;;;;;6.63;4.47;;;16.20;99.90;;;;;;5034247;28;20218;-50
2023/08/27 03:41:31;;;;;;;3.35;2.10;;;16.20;99.90;;;;;;5051672;28;20540;-51
2023/08/27 03:43:57;;;;;;;7.22;2.13;;;16.30;99.90;;;;;;5051718;28;20167;-51
2023/08/27 03:46:22;;;;;;;5.00;2.88;;;16.30;99.90;;;;;;5051750;28;20220;-51
2023/08/27 03:48:48;;;;;;;2.78;2.00;;;16.30;99.90;;;;;;5051668;28;20167;-52
2023/08/27 03:51:14;;;;;;;6.43;2.67;;;16.30;99.90;;;;;;5051590;28;20252;-52
2023/08/27 03:53:40;;;;;;;4.78;1.92;;;16.30;99.90;;;;;;5051820;28;20228;-51
2023/08/27 03:56:06;;;;;;;3.38;1.50;;;16.30;99.90;;;;;;5051965;28;20155;-51
2023/08/27 03:58:31;;;;;;;2.60;1.55;;;16.40;99.90;;;;;;5051476;28;20287;-50
2023/08/27 04:00:57;;;;;;;5.25;1.60;;;16.30;99.90;;;;;;5051309;28;20710;-51
2023/08/27 04:03:23;;;;;;;3.17;1.90;;;16.20;99.90;;;;;;5033559;28;20174;-52
2023/08/27 04:05:49;;;;;;;2.47;1.48;;;16.20;99.90;;;;;;5051444;28;20208;-51
2023/08/27 04:08:17;;;;;;;2.05;1.55;;;16.10;99.90;;;;;;5051389;28;20658;-51
2023/08/27 04:10:53;;;;;;;1.60;1.50;;;16.10;99.90;;;;;;5051386;28;20265;-50
2023/08/27 04:13:19;;;;;;;3.03;1.80;;;16.10;99.90;;;;;;5051335;28;20162;-51
2023/08/27 04:16:05;;;;;;;4.32;1.95;;;16.10;99.90;;;;;;5051330;28;20178;-50
2023/08/27 04:18:33;;;;;;;5.90;2.13;;;16.20;99.90;;;;;;5051199;28;20198;-51
2023/08/27 04:20:58;;;;;;;2.38;1.55;;;16.20;99.90;;;;;;5051540;28;20167;-50
2023/08/27 04:23:24;;;;;;;2.88;1.70;;;16.20;99.90;;;;;;5051242;28;20243;-51
2023/08/27 04:25:49;;;;;;;4.05;1.83;;;16.10;99.90;;;;;;5051315;28;20163;-51
2023/08/27 04:28:15;;;;;;;2.53;1.60;;;16.00;99.90;;;;;;5051267;28;20171;-52
2023/08/27 04:30:44;;;;;;;6.57;2.28;;;16.00;99.90;;;;;;5051432;28;20171;-52
2023/08/27 04:33:10;;;;;;;3.55;1.80;;;16.10;99.90;;;;;;5051122;28;20174;-52
2023/08/27 04:35:36;;;;;;;7.32;2.10;;;16.10;99.90;;;;;;5051744;28;20225;-52
2023/08/27 04:38:03;;;;;;;2.35;1.80;;;16.00;99.90;;;;;;5050948;28;20223;-52
2023/08/27 04:40:28;;;;;;;2.38;1.55;;;16.00;99.90;;;;;;5051014;28;20616;-52
2023/08/27 04:42:54;;;;;;;2.88;1.60;;;16.00;99.90;;;;;;5051033;28;20198;-52
2023/08/27 04:45:20;;;;;;;8.93;2.00;;;15.90;99.90;;;;;;5051154;28;20167;-52
2023/08/27 04:47:45;;;;;;;4.03;1.70;;;15.90;99.90;;;;;;5051083;28;20245;-52
2023/08/27 04:50:11;;;;;;;5.45;2.85;;;16.00;99.90;;;;;;5033082;28;20258;-51
2023/08/27 04:52:37;;;;;;;5.00;1.80;;;16.00;99.90;;;;;;5051468;28;20178;-51
2023/08/27 04:55:06;;;;;;;3.47;2.00;;;16.00;99.90;;;;;;5051434;28;20167;-50
2023/08/27 04:57:33;;;;;;;4.03;2.25;;;16.00;99.90;;;;;;5050910;28;20180;-51
2023/08/27 04:59:58;;;;;;;3.08;2.20;;;16.00;99.90;;;;;;5050943;28;20246;-49
2023/08/27 05:02:24;;;;;;;3.83;1.88;;;16.00;99.90;;;;;;5050908;28;20190;-49
2023/08/27 05:04:50;;;;;;;4.03;1.80;;;16.10;99.90;;;;;;5050900;28;20175;-50
2023/08/27 05:07:16;;;;;;;2.35;1.83;;;16.10;99.90;;;;;;5050780;28;20201;-49
2023/08/27 05:09:42;;;;;;;5.13;2.10;;;16.20;99.90;;;;;;5051057;28;20210;-50
2023/08/27 05:12:07;;;;;;;2.70;1.98;;;16.10;99.90;;;;;;5052574;28;20631;-51
2023/08/27 05:14:33;;;;;;;6.35;2.05;;;16.10;99.90;;;;;;5054921;28;20170;-50
2023/08/27 05:16:59;;;;;;;6.63;3.20;;;16.20;99.90;;;;;;5054549;28;20173;-50
2023/08/27 05:19:24;;;;;;;5.07;2.97;;;16.10;99.90;;;;;;5054318;28;20285;-51
2023/08/27 05:21:50;;;;;;;6.82;2.08;;;16.20;99.90;;;;;;5054442;28;20167;-51
2023/08/27 05:24:15;;;;;;;6.32;2.30;;;16.30;99.90;;;;;;5054372;28;20525;-50
2023/08/27 05:26:41;;;;;;;6.10;2.00;;;16.10;99.90;;;;;;5054502;28;20174;-50
2023/08/27 05:29:06;;;;;;;2.08;1.80;;;16.10;99.90;;;;;;5054683;28;20190;-51
2023/08/27 05:31:32;;;;;;;4.47;1.92;;;16.10;99.90;;;;;;5054158;28;20249;-50
2023/08/27 05:33:57;;;;;;;4.90;2.28;;;16.20;99.90;;;;;;5054100;28;20197;-49
2023/08/27 05:36:23;;;;;;;8.25;2.03;;;16.30;99.90;;;;;;5054209;28;20175;-50
2023/08/27 05:38:49;;;;;;;4.53;2.40;;;16.30;99.90;;;;;;5054025;28;20201;-49
2023/08/27 05:41:14;;;;;;;7.55;3.38;;;16.30;99.90;;;;;;5054069;28;20167;-50
2023/08/27 05:43:42;;;;;;;5.07;2.05;;;16.40;99.90;;;;;;5053973;28;20228;-49
2023/08/27 05:46:08;;;;;;;2.97;1.77;;;16.40;99.90;;;;;;5053822;28;20634;-49
2023/08/27 05:48:33;;;;;;;1.77;1.67;;;16.30;99.90;;;;;;5054353;28;20217;-50
2023/08/27 05:51:03;;;;;;;3.80;1.80;;;16.30;99.90;;;;;;5053896;28;20530;-50
2023/08/27 05:53:28;;;;;;;2.10;1.83;;;16.30;99.90;;;;;;5053488;28;20167;-55
2023/08/27 05:55:54;;;;;;;5.85;2.30;;;16.30;99.90;;;;;;5035952;28;20524;-50
2023/08/27 05:58:20;;;;;;;2.50;1.95;;;16.40;99.90;;;;;;5053691;28;20203;-51
2023/08/27 06:00:45;;;;;;;4.47;2.03;;;16.30;99.90;;;;;;5053672;28;20614;-50
2023/08/27 06:03:11;;;;;;;2.80;1.77;;;16.30;99.90;;;;;;5053882;28;20171;-51
2023/08/27 06:05:37;;;;;;;6.18;2.08;;;16.20;99.90;;;;;;5054243;28;20205;-50
2023/08/27 06:08:04;;;;;;;4.40;1.90;;;16.20;99.90;;;;;;5069361;28;20228;-51
2023/08/27 06:10:30;;;;;;;3.83;2.33;;;16.30;99.90;;;;;;5053823;28;20171;-50
2023/08/27 06:12:57;;;;;;;6.63;2.38;;;16.30;99.90;;;;;;5053326;28;20178;-50
2023/08/27 06:15:27;;;;;;;3.67;1.85;;;16.40;99.90;;;;;;5053452;28;20189;-50
2023/08/27 06:17:53;;;;;;;2.72;2.00;;;16.30;99.90;;;;;;5053378;28;20213;-50
2023/08/27 06:20:19;;;;;;;4.40;1.90;;;16.40;99.90;;;;;;5053475;28;20167;-51
2023/08/27 06:22:44;;;;;;;6.38;2.40;;;16.40;99.90;;;;;;5052998;28;20180;-50
2023/08/27 06:25:10;;;;;;;2.60;2.20;;;16.40;99.90;;;;;;5052974;28;20202;-50
2023/08/27 06:27:35;;;;;;;2.75;2.13;;;16.40;99.90;;;;;;5053601;28;20213;-51
2023/08/27 06:30:01;;;;;;;3.17;2.00;;;16.40;99.90;;;;;;5053049;28;20166;-50
2023/08/27 06:32:27;;;;;;;1.98;1.75;;;16.40;99.90;;;;;;5053038;28;20166;-50
2023/08/27 06:34:54;;;;;;;4.10;2.20;;;16.50;99.90;;;;;;5053093;28;20224;-51
2023/08/27 06:37:19;;;;;;;2.08;1.88;;;16.50;99.90;;;;;;5053004;28;20225;-50
2023/08/27 06:39:45;;;;;;;2.50;2.30;;;16.60;99.90;;;;;;5052850;28;20214;-51
2023/08/27 06:42:12;;;;;;;2.60;2.40;;;16.60;99.90;;;;;;5035245;28;20171;-50
2023/08/27 06:44:38;;;;;;;3.13;2.10;;;16.80;99.90;;;;;;5052761;28;20588;-50
2023/08/27 06:47:04;;;;;;;6.78;2.22;;;16.90;99.90;;;;;;5053206;28;20653;-51
2023/08/27 06:49:29;;;;;;;2.88;2.30;;;16.80;99.90;;;;;;5052749;28;20174;-49
2023/08/27 06:51:55;;;;;;;3.08;2.10;;;16.90;99.90;;;;;;5052659;28;20181;-50
2023/08/27 06:54:20;;;;;;;3.83;2.05;;;16.90;99.90;;;;;;5052636;28;20181;-49
2023/08/27 06:56:46;;;;;;;7.82;3.53;;;17.10;99.90;;;;;;5052563;28;20189;-50
2023/08/27 06:59:11;;;;;;;6.95;3.20;;;17.40;99.90;;;;;;5052453;28;20599;-50
2023/08/27 07:01:39;;;;;;;3.00;2.70;;;17.70;99.90;;;;;;5052776;28;20181;-50
2023/08/27 07:04:05;;;;;;;4.20;2.40;;;17.80;99.90;;;;;;5053043;28;20181;-50
2023/08/27 07:06:31;;;;;;;3.83;2.30;;;18.00;99.90;;;;;;5052481;28;20537;-51
2023/08/27 07:08:57;;;;;;;3.97;2.00;;;18.20;99.90;;;;;;5052294;28;20253;-49
2023/08/27 07:11:22;;;;;;;3.83;2.25;;;18.30;99.90;;;;;;5050016;28;20198;-52
2023/08/27 07:13:51;;;;;;;3.95;2.33;;;18.30;99.90;;;;;;5050484;28;20162;-48
2023/08/27 07:16:19;;;;;;;5.25;2.30;;;18.40;99.90;;;;;;5050965;28;20174;-51
2023/08/27 07:18:46;;;;;;;2.95;1.95;;;18.20;99.90;;;;;;5050647;28;20211;-50
2023/08/27 07:21:12;;;;;;;5.00;2.58;;;18.10;99.90;;;;;;5050702;28;20166;-49
2023/08/27 07:23:39;;;;;;;3.10;2.55;;;18.10;99.90;;;;;;5050558;28;20294;-60
2023/08/27 07:26:04;;;;;;;3.72;2.33;;;18.10;99.90;;;;;;5050992;28;20245;-56
2023/08/27 07:28:30;;;;;;;3.22;2.47;;;17.90;99.90;;;;;;5050224;28;20537;-51
2023/08/27 07:30:56;;;;;;;4.53;2.50;;;17.90;99.90;;;;;;5050168;28;20163;-56
2023/08/27 07:33:22;;;;;;;3.33;2.70;;;17.90;99.90;;;;;;5050142;28;20256;-48
2023/08/27 07:35:47;;;;;;;6.55;2.90;;;18.00;99.90;;;;;;5049225;28;20171;-53
2023/08/27 07:38:14;;;;;;;2.92;2.40;;;18.10;99.90;;;;;;5049835;28;20256;-49
2023/08/27 07:40:40;;;;;;;3.83;2.63;;;18.30;99.90;;;;;;5050038;28;20220;-56
2023/08/27 07:43:06;;;;;;;3.95;2.55;;;18.30;99.90;;;;;;5050525;28;20254;-52
2023/08/27 07:45:32;;;;;;;4.32;2.72;;;18.30;99.90;;;;;;5050593;28;20182;-52
2023/08/27 07:47:58;;;;;;;6.72;3.03;;;18.30;99.90;;;;;;5050008;28;20254;-51
2023/08/27 07:50:25;;;;;;;3.05;2.55;;;18.30;99.90;;;;;;5050054;28;20583;-50
2023/08/27 07:52:50;;;;;;;3.45;3.03;;;18.40;99.90;;;;;;5049909;28;20630;-49
2023/08/27 07:55:16;;;;;;;4.88;3.00;;;18.30;99.90;;;;;;5050105;28;20178;-49
2023/08/27 07:57:41;;;;;;;4.85;2.88;;;18.20;99.90;;;;;;5049662;28;20257;-49
2023/08/27 08:00:08;;;;;;;3.70;2.92;;;18.10;99.90;;;;;;5050098;28;20178;-51
2023/08/27 08:02:33;;;;;;;4.07;3.15;;;18.00;99.90;;;;;;5050141;28;20159;-51
2023/08/27 08:04:59;;;;;;;4.10;2.92;;;17.80;99.90;;;;;;5049759;28;20555;-51
2023/08/27 08:07:25;;;;;;;6.60;3.35;;;18.00;99.90;;;;;;5050025;28;20167;-51
2023/08/27 08:09:51;;;;;;;7.05;3.20;;;18.20;99.90;;;;;;5047432;28;20178;-51
2023/08/27 08:12:17;;;;;;;5.30;3.08;;;18.40;99.90;;;;;;5049618;28;20170;-51
2023/08/27 08:14:42;;;;;;;4.85;3.13;;;18.40;99.90;;;;;;5049575;28;20523;-51
2023/08/27 08:17:09;;;;;;;5.88;3.08;;;18.40;99.90;;;;;;5049602;28;20175;-51
2023/08/27 08:19:34;;;;;;;3.60;3.28;;;18.60;99.90;;;;;;5050200;28;20685;-51
2023/08/27 08:22:00;;;;;;;3.30;2.90;;;18.70;99.90;;;;;;5049578;28;20170;-51
2023/08/27 08:24:26;;;;;;;3.95;3.03;;;18.70;99.90;;;;;;5049875;28;20179;-51
2023/08/27 08:26:52;;;;;;;5.43;3.15;;;18.80;99.90;;;;;;5049469;28;20163;-51
2023/08/27 08:29:20;;;;;;;7.43;3.03;;;18.80;99.90;;;;;;5049516;28;20159;-51
2023/08/27 08:31:46;;;;;;;4.63;3.15;;;18.90;99.90;;;;;;5049747;28;20166;-51
2023/08/27 08:34:12;;;;;;;3.25;2.67;;;18.90;99.90;;;;;;5049482;28;20170;-51
2023/08/27 08:36:37;;;;;;;4.47;2.78;;;18.90;99.90;;;;;;5049428;28;20234;-51
2023/08/27 08:39:03;;;;;;;3.08;2.60;;;18.80;99.90;;;;;;5049852;28;20264;-51
2023/08/27 08:41:29;;;;;;;3.88;2.58;;;18.90;99.90;;;;;;5049451;28;20170;-51
2023/08/27 08:44:39;;;;;;;7.75;3.30;;;18.80;99.90;;;;;;5049354;28;20177;-50
2023/08/27 08:47:07;;;;;;;4.68;2.55;;;19.00;99.90;;;;;;5043074;28;20198;-50
2023/08/27 08:49:34;;;;;;;3.20;2.17;;;19.00;99.90;;;;;;5053893;28;20646;-50
2023/08/27 08:52:07;;;;;;;3.03;2.03;;;19.10;99.90;;;;;;5053505;28;20543;-50
2023/08/27 08:54:36;;;;;;;5.65;2.70;;;19.10;99.90;;;;;;5054021;28;20524;-50
2023/08/27 08:57:03;;;;;;;3.42;2.70;;;19.40;99.90;;;;;;5053627;28;20598;-50
2023/08/27 08:59:30;;;;;;;4.50;2.58;;;19.40;99.90;;;;;;5053165;28;20293;-50
2023/08/27 09:01:57;;;;;;;3.25;2.70;;;19.50;99.90;;;;;;5035003;28;20642;-51
2023/08/27 09:04:24;;;;;;;2.53;2.10;;;19.50;99.90;;;;;;5053001;28;20174;-50
2023/08/27 09:06:51;;;;;;;7.45;3.00;;;19.50;99.90;;;;;;5053191;28;20602;-50
2023/08/27 09:09:18;;;;;;;6.35;3.38;;;19.40;99.90;;;;;;5053189;28;20552;-50
2023/08/27 09:11:44;;;;;;;4.65;2.90;;;19.30;99.90;;;;;;5051974;28;20182;-50
2023/08/27 09:14:11;;;;;;;3.50;2.60;;;19.40;99.90;;;;;;5052887;28;20166;-50
2023/08/27 09:16:36;;;;;;;5.55;2.80;;;19.30;99.90;;;;;;5052697;28;20631;-50
2023/08/27 09:19:02;;;;;;;5.05;2.67;;;19.50;99.90;;;;;;5053199;28;20214;-51
2023/08/27 09:21:29;;;;;;;4.50;2.47;;;19.80;99.90;;;;;;5052843;28;20170;-50
2023/08/27 09:23:55;;;;;;;4.93;3.17;;;20.00;99.90;;;;;;5052932;28;20206;-50
2023/08/27 09:26:20;;;;;;;6.07;2.78;;;20.30;99.90;;;;;;5052824;28;20167;-50
2023/08/27 09:28:47;;;;;;;5.35;2.78;;;20.50;99.90;;;;;;5052741;28;20251;-50
2023/08/27 09:31:35;;;;;;;5.25;3.55;;;21.00;99.90;;;;;;5052567;28;20175;-50
2023/08/27 09:34:01;;;;;;;6.60;3.85;;;20.80;99.90;;;;;;5034566;28;20202;-50
2023/08/27 09:36:26;;;;;;;6.03;3.38;;;21.10;99.90;;;;;;5052280;28;20253;-50
2023/08/27 09:38:52;;;;;;;4.93;2.90;;;21.00;99.90;;;;;;5052222;28;20203;-50
2023/08/27 09:41:18;;;;;;;9.02;3.35;;;20.80;99.90;;;;;;5051111;28;20236;-50
2023/08/27 09:43:54;;;;;;;6.90;2.67;;;21.30;99.90;;;;;;5032831;28;20622;-51
2023/08/27 09:46:20;;;;;;;4.35;2.53;;;21.60;99.90;;;;;;5052301;28;20228;-51
2023/08/27 09:48:59;;;;;;;7.00;2.85;;;21.60;99.90;;;;;;5052537;28;20202;-51
2023/08/27 09:51:27;;;;;;;4.57;2.72;;;21.70;99.90;;;;;;5052166;28;20257;-51
2023/08/27 09:53:53;;;;;;;6.28;2.22;;;21.30;99.90;;;;;;5052016;28;20217;-51
2023/08/27 09:56:23;;;;;;;8.60;2.70;;;20.90;99.90;;;;;;5052079;28;20631;-51
2023/08/27 09:58:49;;;;;;;5.43;2.63;;;21.00;99.90;;;;;;5051557;28;20213;-50
2023/08/27 10:01:15;;;;;;;3.15;2.00;;;21.10;99.90;;;;;;5051873;28;20525;-51
2023/08/27 10:03:40;;;;;;;2.85;2.20;;;21.40;99.90;;;;;;5051973;28;20166;-51
2023/08/27 10:06:07;;;;;;;4.38;2.45;;;21.80;99.90;;;;;;5052292;28;20221;-51
2023/08/27 10:08:32;;;;;;;5.97;2.00;;;22.00;99.90;;;;;;5034366;28;20181;-51
2023/08/27 10:11:08;;;;;;;4.35;2.13;;;22.20;99.90;;;;;;5051804;28;20249;-51
2023/08/27 10:13:34;;;;;;;1.92;1.67;;;22.40;99.90;;;;;;5052188;28;20668;-51
2023/08/27 10:15:59;;;;;;;4.78;2.30;;;22.00;99.90;;;;;;5051834;28;20250;-51
2023/08/27 10:18:26;;;;;;;2.80;1.63;;;22.00;99.90;;;;;;5051867;28;20281;-51
2023/08/27 10:20:53;;;;;;;4.03;2.08;;;21.90;99.90;;;;;;5051739;28;21012;-51
2023/08/27 10:23:20;;;;;;;5.10;2.25;;;21.60;99.90;;;;;;5051665;28;20602;-52
2023/08/27 10:25:47;;;;;;;3.80;1.70;;;21.10;99.90;;;;;;5017399;28;20232;-50
2023/08/27 10:28:15;;;;;;;3.75;2.20;;;20.90;99.90;;;;;;5051944;28;20202;-51
2023/08/27 10:30:44;;;;;;;4.00;1.90;;;20.90;99.90;;;;;;5051505;28;20166;-51
2023/08/27 10:33:10;;;;;;;4.95;2.33;;;21.50;99.90;;;;;;5033794;28;20174;-52
2023/08/27 10:35:39;;;;;;;3.08;1.73;;;21.90;99.90;;;;;;5051922;28;20163;-50
2023/08/27 10:38:07;;;;;;;3.97;1.88;;;21.70;99.90;;;;;;5051430;28;20628;-50
2023/08/27 10:40:36;;;;;;;2.72;1.98;;;21.90;99.90;;;;;;5033896;28;20170;-51
2023/08/27 10:43:09;;;;;;;4.25;2.38;;;21.90;99.90;;;;;;5051796;28;20162;-52
2023/08/27 10:45:38;;;;;;;3.13;2.30;;;21.60;99.90;;;;;;5051706;28;20169;-52
2023/08/27 10:48:09;;;;;;;4.95;2.40;;;22.10;99.90;;;;;;5051884;28;20183;-51
2023/08/27 10:50:48;;;;;;;3.22;2.15;;;22.20;99.90;;;;;;5051364;28;20173;-51
2023/08/27 10:53:18;;;;;;;4.25;1.92;;;22.50;99.90;;;;;;5033215;28;20284;-51
2023/08/27 10:55:50;;;;;;;2.90;1.92;;;22.30;99.90;;;;;;5051004;28;20171;-51
2023/08/27 10:58:23;;;;;;;3.85;1.77;;;21.80;99.90;;;;;;5051256;28;20277;-51
2023/08/27 11:01:09;;;;;;;3.15;1.90;;;21.80;99.90;;;;;;5051222;28;20257;-51
2023/08/27 11:03:53;;;;;;;4.20;1.92;;;21.60;99.90;;;;;;5051162;28;20178;-54
2023/08/27 11:06:20;;;;;;;3.78;1.35;;;21.50;99.90;;;;;;5051177;28;20209;-52
2023/08/27 11:08:52;;;;;;;3.30;1.55;;;21.80;99.90;;;;;;5032604;28;20170;-51
2023/08/27 11:11:24;;;;;;;2.25;1.38;;;21.90;99.90;;;;;;5050724;28;20174;-51
2023/08/27 11:14:01;;;;;;;1.65;1.42;;;22.20;99.90;;;;;;5032880;28;20664;-51
2023/08/27 11:16:29;;;;;;;4.65;1.55;;;22.10;99.90;;;;;;5050824;28;20173;-51
2023/08/27 11:18:55;;;;;;;2.65;1.40;;;22.30;99.90;;;;;;5050506;28;20212;-51
2023/08/27 11:21:47;;;;;;;1.90;1.30;;;22.20;99.90;;;;;;5050456;28;20178;-51
2023/08/27 11:24:15;;;;;;;1.58;1.27;;;22.60;99.90;;;;;;5050723;28;20537;-51
2023/08/27 11:26:41;;;;;;;2.25;1.48;;;22.80;99.90;;;;;;5050723;28;20179;-51
2023/08/27 11:29:10;;;;;;;3.95;1.77;;;22.60;99.90;;;;;;5050696;28;20245;-52
2023/08/27 11:31:40;;;;;;;4.70;1.55;;;22.50;99.90;;;;;;5049181;28;20189;-50
2023/08/27 11:34:07;;;;;;;4.43;1.50;;;23.10;99.90;;;;;;5050708;28;20155;-51
2023/08/27 11:36:34;;;;;;;2.58;1.52;;;23.10;99.90;;;;;;5050467;28;20170;-51
2023/08/27 11:39:01;;;;;;;3.42;1.60;;;23.20;99.90;;;;;;5050451;28;20220;-51
2023/08/27 11:41:37;;;;;;;3.80;1.35;;;22.60;99.90;;;;;;5050587;28;20177;-51
2023/08/27 11:44:08;;;;;;;2.50;1.50;;;22.50;99.90;;;;;;5050661;28;20178;-51
2023/08/27 11:46:34;;;;;;;2.30;1.30;;;22.30;99.90;;;;;;5050535;28;20688;-51
2023/08/27 11:49:00;;;;;;;2.40;1.52;;;22.20;99.90;;;;;;5050094;28;20634;-51
2023/08/27 11:51:26;;;;;;;2.08;1.25;;;22.50;99.90;;;;;;5049991;28;20595;-51
2023/08/27 11:53:52;;;;;;;2.95;1.48;;;22.70;99.90;;;;;;5050418;28;20174;-51
2023/08/27 11:56:18;;;;;;;3.10;1.50;;;22.70;99.90;;;;;;5032235;28;20162;-52
2023/08/27 11:58:53;;;;;;;2.63;1.50;;;22.70;99.90;;;;;;5049783;28;20210;-52
2023/08/27 12:01:22;;;;;;;2.78;1.20;;;22.80;99.90;;;;;;5050028;28;20171;-52
2023/08/27 12:03:49;;;;;;;3.42;1.50;;;22.60;99.90;;;;;;5049677;28;20171;-52
2023/08/27 12:06:20;;;;;;;2.50;1.90;;;23.40;99.90;;;;;;5049877;28;20175;-52
2023/08/27 12:08:50;;;;;;;2.63;1.40;;;22.40;99.90;;;;;;5050023;28;20167;-52
2023/08/27 12:11:17;;;;;;;2.70;1.30;;;22.50;99.90;;;;;;5049664;28;20543;-52
2023/08/27 12:13:53;;;;;;;1.50;1.30;;;22.90;99.90;;;;;;5049705;28;20181;-50
2023/08/27 12:16:28;;;;;;;1.70;1.40;;;23.10;99.90;;;;;;5049674;28;20174;-50
2023/08/27 12:19:08;;;;;;;2.72;1.40;;;23.00;99.90;;;;;;5049683;28;20200;-50
2023/08/27 12:21:57;;;;;;;2.10;1.30;;;23.20;99.90;;;;;;5055143;28;20184;-51
2023/08/27 12:24:35;;;;;;;2.85;1.45;;;23.00;99.90;;;;;;5056294;28;20162;-50
2023/08/27 12:27:03;;;;;;;2.60;1.52;;;23.30;99.90;;;;;;5038236;28;20629;-51
2023/08/27 12:29:30;;;;;;;1.60;1.40;;;23.50;99.90;;;;;;5056463;28;20530;-51
2023/08/27 12:31:56;;;;;;;1.83;1.42;;;23.10;99.90;;;;;;5056128;28;20165;-51
2023/08/27 12:34:33;;;;;;;2.22;1.30;;;22.80;99.90;;;;;;5056469;28;20170;-50
2023/08/27 12:36:59;;;;;;;5.10;1.60;;;22.60;99.90;;;;;;5056216;28;20221;-51
2023/08/27 12:39:24;;;;;;;1.98;1.33;;;22.40;99.90;;;;;;5055983;28;20209;-52
2023/08/27 12:41:50;;;;;;;9.90;2.35;;;21.90;99.90;;;;;;5056309;28;20169;-52
2023/08/27 12:44:15;;;;;;;4.28;1.90;;;21.50;99.90;;;;;;5056203;28;20261;-52
2023/08/27 12:46:41;;;;;;;4.13;1.50;;;21.00;99.90;;;;;;5056127;28;20158;-51
2023/08/27 12:49:07;;;;;;;4.93;1.67;;;20.70;99.90;;;;;;5056261;28;20163;-52